sensor_id;sensor_type;location;lat;lon;timestamp;pressure;altitude;pressure_sealevel;temperature;humidity
26531;BME280;14201;43.188;24.160;2022-10-04T00:01:48;99776.97;;;13.61;66.06
26531;BME280;14201;43.188;24.160;2022-10-04T00:04:24;99763.00;;;13.60;66.29
26531;BME280;14201;43.188;24.160;2022-10-04T00:06:56;99767.38;;;13.59;66.43
26531;BME280;14201;43.188;24.160;2022-10-04T00:09:25;99757.22;;;13.70;66.07
26531;BME280;14201;43.188;24.160;2022-10-04T00:11:54;99751.44;;;13.81;65.30
26531;BME280;14201;43.188;24.160;2022-10-04T00:14:21;99754.72;;;13.73;65.41
26531;BME280;14201;43.188;24.160;2022-10-04T00:16:48;99747.59;;;13.69;66.19
26531;BME280;14201;43.188;24.160;2022-10-04T00:24:19;99760.06;;;13.78;65.34
26531;BME280;14201;43.188;24.160;2022-10-04T00:36:57;99756.47;;;13.74;65.50
26531;BME280;14201;43.188;24.160;2022-10-04T00:39:36;99761.50;;;13.68;65.92
26531;BME280;14201;43.188;24.160;2022-10-04T00:47:20;99753.84;;;13.74;65.46
26531;BME280;14201;43.188;24.160;2022-10-04T00:49:48;99756.47;;;13.74;65.76
26531;BME280;14201;43.188;24.160;2022-10-04T00:52:20;99759.75;;;13.67;66.21
26531;BME280;14201;43.188;24.160;2022-10-04T00:54:48;99755.03;;;13.57;65.88
26531;BME280;14201;43.188;24.160;2022-10-04T00:57:26;99759.06;;;13.73;65.48
26531;BME280;14201;43.188;24.160;2022-10-04T00:59:54;99744.97;;;13.69;65.42
26531;BME280;14201;43.188;24.160;2022-10-04T01:02:24;99752.84;;;13.69;65.84
26531;BME280;14201;43.188;24.160;2022-10-04T01:04:56;99749.47;;;13.73;65.15
26531;BME280;14201;43.188;24.160;2022-10-04T01:07:28;99759.84;;;13.70;65.28
26531;BME280;14201;43.188;24.160;2022-10-04T01:09:56;99752.91;;;13.71;65.46
26531;BME280;14201;43.188;24.160;2022-10-04T01:12:31;99754.34;;;13.61;65.89
26531;BME280;14201;43.188;24.160;2022-10-04T01:17:29;99759.84;;;13.70;65.43
26531;BME280;14201;43.188;24.160;2022-10-04T01:19:54;99754.53;;;13.67;65.32
26531;BME280;14201;43.188;24.160;2022-10-04T01:24:55;99760.44;;;13.62;65.10
26531;BME280;14201;43.188;24.160;2022-10-04T01:27:31;99766.88;;;13.71;65.14
26531;BME280;14201;43.188;24.160;2022-10-04T01:29:57;99767.69;;;13.70;65.16
26531;BME280;14201;43.188;24.160;2022-10-04T01:32:23;99774.78;;;13.74;64.88
26531;BME280;14201;43.188;24.160;2022-10-04T01:34:48;99777.63;;;13.81;64.94
26531;BME280;14201;43.188;24.160;2022-10-04T01:37:14;99770.59;;;13.79;64.45
26531;BME280;14201;43.188;24.160;2022-10-04T01:39:39;99770.16;;;13.66;64.85
26531;BME280;14201;43.188;24.160;2022-10-04T01:42:09;99777.72;;;13.56;65.55
26531;BME280;14201;43.188;24.160;2022-10-04T01:44:46;99774.34;;;13.61;65.04
26531;BME280;14201;43.188;24.160;2022-10-04T01:47:15;99773.53;;;13.62;65.28
26531;BME280;14201;43.188;24.160;2022-10-04T01:49:43;99776.44;;;13.71;65.25
26531;BME280;14201;43.188;24.160;2022-10-04T01:54:48;99759.41;;;13.56;65.82
26531;BME280;14201;43.188;24.160;2022-10-04T01:57:18;99762.19;;;13.61;65.62
26531;BME280;14201;43.188;24.160;2022-10-04T01:59:56;99767.38;;;13.59;65.46
26531;BME280;14201;43.188;24.160;2022-10-04T02:02:29;99770.22;;;13.67;65.82
26531;BME280;14201;43.188;24.160;2022-10-04T02:04:58;99778.56;;;13.55;66.20
26531;BME280;14201;43.188;24.160;2022-10-04T02:07:27;99770.03;;;13.61;65.66
26531;BME280;14201;43.188;24.160;2022-10-04T02:09:54;99766.38;;;13.56;66.08
26531;BME280;14201;43.188;24.160;2022-10-04T02:12:23;99762.81;;;13.54;66.18
26531;BME280;14201;43.188;24.160;2022-10-04T02:14:51;99767.44;;;13.63;66.03
26531;BME280;14201;43.188;24.160;2022-10-04T02:17:18;99768.34;;;13.63;65.75
26531;BME280;14201;43.188;24.160;2022-10-04T02:19:44;99770.16;;;13.66;65.78
26531;BME280;14201;43.188;24.160;2022-10-04T02:22:10;99769.38;;;13.68;65.45
26531;BME280;14201;43.188;24.160;2022-10-04T02:24:37;99769.28;;;13.65;66.11
26531;BME280;14201;43.188;24.160;2022-10-04T02:27:04;99775.53;;;13.70;65.60
26531;BME280;14201;43.188;24.160;2022-10-04T02:29:30;99782.56;;;13.71;66.03
26531;BME280;14201;43.188;24.160;2022-10-04T02:31:56;99782.75;;;13.77;65.43
26531;BME280;14201;43.188;24.160;2022-10-04T02:34:40;99768.63;;;13.72;65.74
26531;BME280;14201;43.188;24.160;2022-10-04T02:37:05;99777.16;;;13.65;65.69
26531;BME280;14201;43.188;24.160;2022-10-04T02:39:51;99782.56;;;13.71;65.98
26531;BME280;14201;43.188;24.160;2022-10-04T02:42:26;99789.72;;;13.77;65.47
26531;BME280;14201;43.188;24.160;2022-10-04T02:47:34;99795.09;;;13.82;65.20
26531;BME280;14201;43.188;24.160;2022-10-04T02:50:05;99805.56;;;13.82;64.55
26531;BME280;14201;43.188;24.160;2022-10-04T02:52:35;99802.94;;;13.82;65.24
26531;BME280;14201;43.188;24.160;2022-10-04T02:57:28;99813.47;;;13.83;64.92
26531;BME280;14201;43.188;24.160;2022-10-04T03:00:06;99813.84;;;13.94;64.66
26531;BME280;14201;43.188;24.160;2022-10-04T03:02:34;99812.00;;;13.91;64.70
26531;BME280;14201;43.188;24.160;2022-10-04T03:05:03;99820.69;;;13.90;64.81
26531;BME280;14201;43.188;24.160;2022-10-04T03:07:30;99819.72;;;13.87;64.97
26531;BME280;14201;43.188;24.160;2022-10-04T03:09:56;99825.97;;;13.92;64.96
26531;BME280;14201;43.188;24.160;2022-10-04T03:12:22;99841.66;;;13.92;64.71
26531;BME280;14201;43.188;24.160;2022-10-04T03:14:47;99830.47;;;13.96;64.71
26531;BME280;14201;43.188;24.160;2022-10-04T03:17:13;99821.59;;;13.91;64.90
26531;BME280;14201;43.188;24.160;2022-10-04T03:19:40;99828.38;;;13.86;65.19
26531;BME280;14201;43.188;24.160;2022-10-04T03:22:06;99836.16;;;13.83;65.02
26531;BME280;14201;43.188;24.160;2022-10-04T03:24:34;99832.50;;;13.77;65.34
26531;BME280;14201;43.188;24.160;2022-10-04T03:27:11;99838.88;;;13.86;64.63
26531;BME280;14201;43.188;24.160;2022-10-04T03:29:39;99841.28;;;13.79;64.91
26531;BME280;14201;43.188;24.160;2022-10-04T03:32:08;99840.66;;;13.87;65.02
26531;BME280;14201;43.188;24.160;2022-10-04T03:34:36;99841.78;;;13.95;64.48
26531;BME280;14201;43.188;24.160;2022-10-04T03:37:05;99835.97;;;13.76;64.79
26531;BME280;14201;43.188;24.160;2022-10-04T03:39:32;99838.03;;;13.87;64.84
26531;BME280;14201;43.188;24.160;2022-10-04T03:42:02;99845.72;;;13.82;65.22
26531;BME280;14201;43.188;24.160;2022-10-04T03:44:28;99843.50;;;13.67;65.65
26531;BME280;14201;43.188;24.160;2022-10-04T03:46:55;99849.00;;;13.75;65.82
26531;BME280;14201;43.188;24.160;2022-10-04T03:49:29;99843.84;;;13.78;65.73
26531;BME280;14201;43.188;24.160;2022-10-04T03:51:55;99844.91;;;13.83;65.36
26531;BME280;14201;43.188;24.160;2022-10-04T03:54:22;99842.47;;;13.62;65.74
26531;BME280;14201;43.188;24.160;2022-10-04T03:56:52;99830.50;;;13.69;65.62
26531;BME280;14201;43.188;24.160;2022-10-04T03:59:21;99836.78;;;13.75;65.86
26531;BME280;14201;43.188;24.160;2022-10-04T04:07:04;99843.72;;;13.73;65.25
26531;BME280;14201;43.188;24.160;2022-10-04T04:11:55;99844.50;;;13.71;65.34
26531;BME280;14201;43.188;24.160;2022-10-04T04:14:23;99851.25;;;13.64;64.81
26531;BME280;14201;43.188;24.160;2022-10-04T04:16:50;99863.19;;;13.56;65.21
26531;BME280;14201;43.188;24.160;2022-10-04T04:19:17;99863.31;;;13.59;65.84
26531;BME280;14201;43.188;24.160;2022-10-04T04:21:44;99866.88;;;13.61;65.17
26531;BME280;14201;43.188;24.160;2022-10-04T04:24:16;99862.47;;;13.60;65.75
26531;BME280;14201;43.188;24.160;2022-10-04T04:26:57;99871.06;;;13.56;66.24
26531;BME280;14201;43.188;24.160;2022-10-04T04:32:15;99885.53;;;13.46;66.18
26531;BME280;14201;43.188;24.160;2022-10-04T04:34:52;99875.19;;;13.49;66.40
26531;BME280;14201;43.188;24.160;2022-10-04T04:37:18;99872.34;;;13.43;66.40
26531;BME280;14201;43.188;24.160;2022-10-04T04:39:44;99871.59;;;13.46;66.10
26531;BME280;14201;43.188;24.160;2022-10-04T04:44:44;99873.94;;;13.38;66.79
26531;BME280;14201;43.188;24.160;2022-10-04T04:47:13;99877.31;;;13.35;67.21
26531;BME280;14201;43.188;24.160;2022-10-04T04:49:43;99881.06;;;13.42;67.04
26531;BME280;14201;43.188;24.160;2022-10-04T04:52:12;99882.81;;;13.43;66.73
26531;BME280;14201;43.188;24.160;2022-10-04T04:54:40;99887.38;;;13.49;66.80
26531;BME280;14201;43.188;24.160;2022-10-04T04:57:08;99890.31;;;13.58;66.28
26531;BME280;14201;43.188;24.160;2022-10-04T04:59:33;99893.88;;;13.60;66.84
26531;BME280;14201;43.188;24.160;2022-10-04T05:02:01;99897.38;;;13.61;66.22
26531;BME280;14201;43.188;24.160;2022-10-04T05:04:27;99899.31;;;13.66;66.59
26531;BME280;14201;43.188;24.160;2022-10-04T05:11:51;99911.91;;;13.78;66.73
26531;BME280;14201;43.188;24.160;2022-10-04T05:14:17;99909.03;;;13.70;66.95
26531;BME280;14201;43.188;24.160;2022-10-04T05:16:50;99912.72;;;13.75;66.70
26531;BME280;14201;43.188;24.160;2022-10-04T05:19:20;99914.97;;;13.90;66.35
26531;BME280;14201;43.188;24.160;2022-10-04T05:21:48;99918.47;;;13.91;66.72
26531;BME280;14201;43.188;24.160;2022-10-04T05:24:20;99924.84;;;13.99;65.91
26531;BME280;14201;43.188;24.160;2022-10-04T05:26:50;99924.34;;;14.11;65.49
26531;BME280;14201;43.188;24.160;2022-10-04T05:29:17;99932.81;;;14.02;65.82
26531;BME280;14201;43.188;24.160;2022-10-04T05:31:49;99936.63;;;14.12;65.77
26531;BME280;14201;43.188;24.160;2022-10-04T05:34:24;99950.84;;;14.20;64.54
26531;BME280;14201;43.188;24.160;2022-10-04T05:36:58;99945.56;;;14.18;64.35
26531;BME280;14201;43.188;24.160;2022-10-04T05:39:38;99950.16;;;14.26;64.56
26531;BME280;14201;43.188;24.160;2022-10-04T05:44:35;99956.97;;;14.21;64.81
26531;BME280;14201;43.188;24.160;2022-10-04T05:47:04;99965.88;;;14.26;64.93
26531;BME280;14201;43.188;24.160;2022-10-04T05:49:32;99960.03;;;14.34;64.18
26531;BME280;14201;43.188;24.160;2022-10-04T05:52:00;99962.28;;;14.22;64.70
26531;BME280;14201;43.188;24.160;2022-10-04T05:54:28;99971.38;;;14.33;64.52
26531;BME280;14201;43.188;24.160;2022-10-04T05:57:04;99973.75;;;14.26;64.90
26531;BME280;14201;43.188;24.160;2022-10-04T06:02:12;99973.06;;;14.31;64.81
26531;BME280;14201;43.188;24.160;2022-10-04T06:07:24;99988.16;;;14.38;65.08
26531;BME280;14201;43.188;24.160;2022-10-04T06:16:10;100003.28;;;14.47;64.94
26531;BME280;14201;43.188;24.160;2022-10-04T06:23:17;100020.06;;;14.52;64.48
26531;BME280;14201;43.188;24.160;2022-10-04T06:30:53;100029.56;;;14.76;64.00
26531;BME280;14201;43.188;24.160;2022-10-04T06:33:26;100036.63;;;14.79;64.13
26531;BME280;14201;43.188;24.160;2022-10-04T06:35:59;100046.09;;;14.73;64.45
26531;BME280;14201;43.188;24.160;2022-10-04T06:43:45;100043.06;;;14.88;64.48
26531;BME280;14201;43.188;24.160;2022-10-04T06:48:51;100042.25;;;15.18;63.05
26531;BME280;14201;43.188;24.160;2022-10-04T06:56:43;100052.03;;;14.96;64.03
26531;BME280;14201;43.188;24.160;2022-10-04T06:59:33;100051.97;;;14.93;64.80
26531;BME280;14201;43.188;24.160;2022-10-04T07:02:04;100051.22;;;14.98;64.10
26531;BME280;14201;43.188;24.160;2022-10-04T07:07:31;100037.88;;;15.19;63.04
26531;BME280;14201;43.188;24.160;2022-10-04T07:09:50;100051.88;;;15.19;63.48
26531;BME280;14201;43.188;24.160;2022-10-04T07:12:16;100055.81;;;15.33;63.01
26531;BME280;14201;43.188;24.160;2022-10-04T07:14:44;100047.53;;;15.50;62.35
26531;BME280;14201;43.188;24.160;2022-10-04T07:17:19;100052.13;;;15.57;62.04
26531;BME280;14201;43.188;24.160;2022-10-04T07:19:48;100046.84;;;15.87;62.10
26531;BME280;14201;43.188;24.160;2022-10-04T07:22:25;100043.69;;;16.34;60.36
26531;BME280;14201;43.188;24.160;2022-10-04T07:27:27;100049.78;;;17.03;58.67
26531;BME280;14201;43.188;24.160;2022-10-04T07:29:55;100046.44;;;17.51;55.76
26531;BME280;14201;43.188;24.160;2022-10-04T07:40:32;100056.63;;;17.77;54.90
26531;BME280;14201;43.188;24.160;2022-10-04T07:43:30;100055.66;;;18.17;54.17
26531;BME280;14201;43.188;24.160;2022-10-04T07:46:43;100054.31;;;18.41;51.47
26531;BME280;14201;43.188;24.160;2022-10-04T07:49:18;100056.38;;;18.57;51.32
26531;BME280;14201;43.188;24.160;2022-10-04T07:51:51;100052.84;;;18.58;50.52
26531;BME280;14201;43.188;24.160;2022-10-04T07:54:35;100044.34;;;18.75;51.36
26531;BME280;14201;43.188;24.160;2022-10-04T07:57:39;100056.56;;;18.69;49.19
26531;BME280;14201;43.188;24.160;2022-10-04T08:05:28;100058.06;;;18.54;51.04
26531;BME280;14201;43.188;24.160;2022-10-04T08:16:00;100062.44;;;18.04;52.58
26531;BME280;14201;43.188;24.160;2022-10-04T08:18:45;100063.00;;;17.86;51.07
26531;BME280;14201;43.188;24.160;2022-10-04T08:21:25;100066.47;;;17.85;51.78
26531;BME280;14201;43.188;24.160;2022-10-04T08:24:19;100063.69;;;17.79;52.87
26531;BME280;14201;43.188;24.160;2022-10-04T08:35:35;100074.63;;;17.98;52.71
26531;BME280;14201;43.188;24.160;2022-10-04T08:38:14;100077.34;;;18.02;53.28
26531;BME280;14201;43.188;24.160;2022-10-04T08:43:57;100068.78;;;18.14;53.94
26531;BME280;14201;43.188;24.160;2022-10-04T09:01:05;100079.91;;;18.46;52.20
26531;BME280;14201;43.188;24.160;2022-10-04T09:06:41;100085.88;;;18.35;52.82
26531;BME280;14201;43.188;24.160;2022-10-04T09:09:34;100083.25;;;18.36;52.52
26531;BME280;14201;43.188;24.160;2022-10-04T09:15:35;100080.88;;;18.50;52.10
26531;BME280;14201;43.188;24.160;2022-10-04T09:39:51;100089.00;;;18.64;52.07
26531;BME280;14201;43.188;24.160;2022-10-04T09:50:54;100085.31;;;19.07;51.24
26531;BME280;14201;43.188;24.160;2022-10-04T09:53:27;100086.22;;;19.08;51.20
26531;BME280;14201;43.188;24.160;2022-10-04T09:56:09;100092.44;;;19.13;50.56
26531;BME280;14201;43.188;24.160;2022-10-04T10:01:57;100100.09;;;18.95;50.03
26531;BME280;14201;43.188;24.160;2022-10-04T10:04:47;100093.72;;;18.82;49.84
26531;BME280;14201;43.188;24.160;2022-10-04T10:27:18;100074.56;;;21.49;44.17
26531;BME280;14201;43.188;24.160;2022-10-04T10:32:18;100075.50;;;21.53;46.71
26531;BME280;14201;43.188;24.160;2022-10-04T11:01:02;100064.78;;;21.37;43.12
26531;BME280;14201;43.188;24.160;2022-10-04T11:03:53;100064.84;;;21.45;44.17
26531;BME280;14201;43.188;24.160;2022-10-04T11:16:52;100065.81;;;21.64;43.05
26531;BME280;14201;43.188;24.160;2022-10-04T11:34:57;100066.78;;;21.94;42.79
26531;BME280;14201;43.188;24.160;2022-10-04T11:40:13;100061.34;;;21.54;42.93
26531;BME280;14201;43.188;24.160;2022-10-04T11:50:33;100062.97;;;21.30;42.46
26531;BME280;14201;43.188;24.160;2022-10-04T11:58:30;100062.91;;;21.22;43.01
26531;BME280;14201;43.188;24.160;2022-10-04T12:19:10;100073.50;;;21.22;41.44
26531;BME280;14201;43.188;24.160;2022-10-04T12:24:37;100069.75;;;20.90;42.20
26531;BME280;14201;43.188;24.160;2022-10-04T12:35:17;100058.88;;;20.54;42.71
26531;BME280;14201;43.188;24.160;2022-10-04T12:41:17;100072.97;;;20.52;43.28
26531;BME280;14201;43.188;24.160;2022-10-04T12:43:29;100077.41;;;20.51;43.56
26531;BME280;14201;43.188;24.160;2022-10-04T12:48:26;100073.69;;;20.35;43.82
26531;BME280;14201;43.188;24.160;2022-10-04T12:51:07;100076.34;;;20.34;44.05
26531;BME280;14201;43.188;24.160;2022-10-04T12:56:14;100071.94;;;20.34;45.00
26531;BME280;14201;43.188;24.160;2022-10-04T12:59:08;100065.94;;;20.57;45.53
26531;BME280;14201;43.188;24.160;2022-10-04T13:17:29;100072.63;;;21.20;41.51
26531;BME280;14201;43.188;24.160;2022-10-04T13:22:35;100080.41;;;20.94;42.02
26531;BME280;14201;43.188;24.160;2022-10-04T13:27:42;100079.34;;;20.74;43.31
26531;BME280;14201;43.188;24.160;2022-10-04T13:30:15;100077.53;;;20.68;43.79
26531;BME280;14201;43.188;24.160;2022-10-04T13:32:46;100077.31;;;20.43;44.21
26531;BME280;14201;43.188;24.160;2022-10-04T13:35:16;100079.91;;;20.39;44.51
26531;BME280;14201;43.188;24.160;2022-10-04T13:45:50;100079.66;;;20.13;45.11
26531;BME280;14201;43.188;24.160;2022-10-04T14:14:57;100085.25;;;20.42;44.45
26531;BME280;14201;43.188;24.160;2022-10-04T14:25:24;100110.50;;;20.11;52.44
26531;BME280;14201;43.188;24.160;2022-10-04T14:33:42;100111.34;;;20.08;51.95
26531;BME280;14201;43.188;24.160;2022-10-04T14:51:38;100110.34;;;19.98;49.73
26531;BME280;14201;43.188;24.160;2022-10-04T15:07:37;100131.56;;;20.04;48.60
26531;BME280;14201;43.188;24.160;2022-10-04T15:10:11;100135.03;;;19.97;47.94
26531;BME280;14201;43.188;24.160;2022-10-04T15:12:54;100126.13;;;19.89;47.27
26531;BME280;14201;43.188;24.160;2022-10-04T15:15:26;100138.25;;;19.75;48.06
26531;BME280;14201;43.188;24.160;2022-10-04T15:18:00;100139.84;;;19.65;47.79
26531;BME280;14201;43.188;24.160;2022-10-04T15:25:35;100141.16;;;19.32;48.02
26531;BME280;14201;43.188;24.160;2022-10-04T15:28:01;100138.56;;;19.35;48.37
26531;BME280;14201;43.188;24.160;2022-10-04T15:33:11;100149.84;;;19.23;48.76
26531;BME280;14201;43.188;24.160;2022-10-04T15:38:29;100154.88;;;19.08;49.08
26531;BME280;14201;43.188;24.160;2022-10-04T15:43:43;100162.28;;;18.79;49.20
26531;BME280;14201;43.188;24.160;2022-10-04T15:48:55;100174.28;;;18.61;49.89
26531;BME280;14201;43.188;24.160;2022-10-04T15:59:17;100189.41;;;18.26;51.02
26531;BME280;14201;43.188;24.160;2022-10-04T16:07:38;100206.56;;;18.04;51.57
26531;BME280;14201;43.188;24.160;2022-10-04T16:10:22;100212.53;;;17.95;52.23
26531;BME280;14201;43.188;24.160;2022-10-04T16:15:34;100225.34;;;17.80;52.98
26531;BME280;14201;43.188;24.160;2022-10-04T16:21:52;100240.91;;;17.69;53.76
26531;BME280;14201;43.188;24.160;2022-10-04T16:34:58;100267.81;;;17.56;55.49
26531;BME280;14201;43.188;24.160;2022-10-04T16:56:27;100305.41;;;17.15;54.69
26531;BME280;14201;43.188;24.160;2022-10-04T16:59:07;100308.91;;;17.14;54.56
26531;BME280;14201;43.188;24.160;2022-10-04T17:09:46;100326.06;;;17.00;55.42
26531;BME280;14201;43.188;24.160;2022-10-04T17:17:59;100343.53;;;16.98;55.80
26531;BME280;14201;43.188;24.160;2022-10-04T17:28:57;100350.63;;;16.70;56.52
26531;BME280;14201;43.188;24.160;2022-10-04T17:37:19;100343.53;;;16.37;57.97
26531;BME280;14201;43.188;24.160;2022-10-04T17:40:17;100360.41;;;16.45;57.57
26531;BME280;14201;43.188;24.160;2022-10-04T17:45:55;100367.84;;;16.30;60.17
26531;BME280;14201;43.188;24.160;2022-10-04T17:48:30;100357.84;;;16.18;57.57
26531;BME280;14201;43.188;24.160;2022-10-04T17:54:11;100376.34;;;15.94;60.39
26531;BME280;14201;43.188;24.160;2022-10-04T17:59:41;100381.09;;;15.53;61.03
26531;BME280;14201;43.188;24.160;2022-10-04T18:02:09;100386.28;;;15.26;62.42
26531;BME280;14201;43.188;24.160;2022-10-04T18:04:46;100393.97;;;15.21;62.47
26531;BME280;14201;43.188;24.160;2022-10-04T18:07:22;100388.69;;;14.95;63.49
26531;BME280;14201;43.188;24.160;2022-10-04T18:09:49;100394.25;;;14.81;63.83
26531;BME280;14201;43.188;24.160;2022-10-04T18:12:37;100400.13;;;14.73;64.84
26531;BME280;14201;43.188;24.160;2022-10-04T18:15:23;100398.16;;;14.68;65.04
26531;BME280;14201;43.188;24.160;2022-10-04T18:17:50;100407.06;;;14.73;65.00
26531;BME280;14201;43.188;24.160;2022-10-04T18:20:17;100411.50;;;14.74;64.95
26531;BME280;14201;43.188;24.160;2022-10-04T18:22:54;100418.47;;;14.73;64.46
26531;BME280;14201;43.188;24.160;2022-10-04T18:25:20;100415.72;;;14.70;64.93
26531;BME280;14201;43.188;24.160;2022-10-04T18:30:17;100429.50;;;14.65;64.52
26531;BME280;14201;43.188;24.160;2022-10-04T18:32:44;100433.00;;;14.65;64.88
26531;BME280;14201;43.188;24.160;2022-10-04T18:35:26;100430.06;;;14.57;64.83
26531;BME280;14201;43.188;24.160;2022-10-04T18:37:55;100428.84;;;14.49;64.23
26531;BME280;14201;43.188;24.160;2022-10-04T18:40:25;100439.94;;;14.42;64.62
26531;BME280;14201;43.188;24.160;2022-10-04T18:45:22;100445.47;;;14.27;66.15
26531;BME280;14201;43.188;24.160;2022-10-04T18:47:48;100442.72;;;14.24;66.56
26531;BME280;14201;43.188;24.160;2022-10-04T19:01:38;100466.63;;;13.90;67.54
26531;BME280;14201;43.188;24.160;2022-10-04T19:04:36;100467.47;;;13.89;66.99
26531;BME280;14201;43.188;24.160;2022-10-04T19:12:17;100465.53;;;13.85;68.04
26531;BME280;14201;43.188;24.160;2022-10-04T19:18:13;100467.69;;;13.74;69.11
26531;BME280;14201;43.188;24.160;2022-10-04T19:33:02;100478.28;;;13.36;70.71
26531;BME280;14201;43.188;24.160;2022-10-04T19:38:11;100479.88;;;13.33;71.26
26531;BME280;14201;43.188;24.160;2022-10-04T19:43:21;100474.81;;;13.37;71.04
26531;BME280;14201;43.188;24.160;2022-10-04T19:46:07;100476.63;;;13.38;70.77
26531;BME280;14201;43.188;24.160;2022-10-04T19:48:48;100475.13;;;13.44;70.15
26531;BME280;14201;43.188;24.160;2022-10-04T19:51:19;100482.75;;;13.39;70.06
26531;BME280;14201;43.188;24.160;2022-10-04T19:53:47;100489.78;;;13.40;69.93
26531;BME280;14201;43.188;24.160;2022-10-04T19:56:17;100485.53;;;13.42;70.15
26531;BME280;14201;43.188;24.160;2022-10-04T19:58:45;100489.53;;;13.34;67.58
26531;BME280;14201;43.188;24.160;2022-10-04T20:01:15;100490.66;;;13.21;67.92
26531;BME280;14201;43.188;24.160;2022-10-04T20:03:41;100490.78;;;13.05;68.89
26531;BME280;14201;43.188;24.160;2022-10-04T20:06:06;100497.63;;;13.03;70.04
26531;BME280;14201;43.188;24.160;2022-10-04T20:08:52;100498.63;;;13.05;70.89
26531;BME280;14201;43.188;24.160;2022-10-04T20:11:21;100508.19;;;13.04;70.88
26531;BME280;14201;43.188;24.160;2022-10-04T20:19:13;100512.66;;;12.87;71.89
26531;BME280;14201;43.188;24.160;2022-10-04T20:21:39;100511.72;;;12.87;71.21
26531;BME280;14201;43.188;24.160;2022-10-04T20:24:09;100515.19;;;12.68;68.90
26531;BME280;14201;43.188;24.160;2022-10-04T20:26:40;100516.44;;;12.58;69.10
26531;BME280;14201;43.188;24.160;2022-10-04T20:32:00;100520.28;;;12.47;73.05
26531;BME280;14201;43.188;24.160;2022-10-04T20:36:54;100525.06;;;12.55;75.46
26531;BME280;14201;43.188;24.160;2022-10-04T20:47:41;100526.44;;;12.31;76.86
26531;BME280;14201;43.188;24.160;2022-10-04T20:52:42;100529.78;;;12.45;76.41
26531;BME280;14201;43.188;24.160;2022-10-04T20:55:15;100537.81;;;12.49;77.13
26531;BME280;14201;43.188;24.160;2022-10-04T20:57:41;100535.38;;;12.52;76.53
26531;BME280;14201;43.188;24.160;2022-10-04T21:00:15;100533.19;;;12.61;76.26
26531;BME280;14201;43.188;24.160;2022-10-04T21:02:42;100541.41;;;12.69;75.55
26531;BME280;14201;43.188;24.160;2022-10-04T21:05:11;100538.66;;;12.66;76.04
26531;BME280;14201;43.188;24.160;2022-10-04T21:07:36;100545.56;;;12.66;76.02
26531;BME280;14201;43.188;24.160;2022-10-04T21:10:14;100553.56;;;12.69;75.85
26531;BME280;14201;43.188;24.160;2022-10-04T21:12:39;100548.56;;;12.73;75.25
26531;BME280;14201;43.188;24.160;2022-10-04T21:28:38;100551.13;;;12.72;74.44
26531;BME280;14201;43.188;24.160;2022-10-04T21:31:03;100555.44;;;12.71;73.28
26531;BME280;14201;43.188;24.160;2022-10-04T21:33:29;100555.16;;;12.65;73.87
26531;BME280;14201;43.188;24.160;2022-10-04T21:35:55;100564.53;;;12.61;74.89
26531;BME280;14201;43.188;24.160;2022-10-04T21:38:20;100562.59;;;12.57;75.65
26531;BME280;14201;43.188;24.160;2022-10-04T21:40:46;100558.94;;;12.54;75.57
26531;BME280;14201;43.188;24.160;2022-10-04T21:43:11;100565.22;;;12.57;75.97
26531;BME280;14201;43.188;24.160;2022-10-04T21:45:36;100557.59;;;12.44;76.29
26531;BME280;14201;43.188;24.160;2022-10-04T21:48:02;100560.09;;;12.07;77.25
26531;BME280;14201;43.188;24.160;2022-10-04T21:50:27;100552.06;;;12.04;75.59
26531;BME280;14201;43.188;24.160;2022-10-04T21:52:53;100565.09;;;12.02;75.67
26531;BME280;14201;43.188;24.160;2022-10-04T21:55:18;100563.75;;;12.10;76.11
26531;BME280;14201;43.188;24.160;2022-10-04T21:57:43;100561.84;;;12.08;76.52
26531;BME280;14201;43.188;24.160;2022-10-04T22:00:09;100562.09;;;12.12;77.07
26531;BME280;14201;43.188;24.160;2022-10-04T22:02:34;100561.34;;;12.15;77.87
26531;BME280;14201;43.188;24.160;2022-10-04T22:05:00;100555.25;;;12.14;77.80
26531;BME280;14201;43.188;24.160;2022-10-04T22:07:25;100557.94;;;12.16;78.25
26531;BME280;14201;43.188;24.160;2022-10-04T22:09:50;100568.31;;;12.14;78.01
26531;BME280;14201;43.188;24.160;2022-10-04T22:12:16;100564.81;;;12.14;77.29
26531;BME280;14201;43.188;24.160;2022-10-04T22:14:41;100566.00;;;12.20;74.88
26531;BME280;14201;43.188;24.160;2022-10-04T22:17:06;100564.84;;;12.15;75.98
26531;BME280;14201;43.188;24.160;2022-10-04T22:19:32;100568.66;;;12.04;77.35
26531;BME280;14201;43.188;24.160;2022-10-04T22:21:57;100571.03;;;11.99;77.47
26531;BME280;14201;43.188;24.160;2022-10-04T22:24:23;100569.69;;;12.08;77.42
26531;BME280;14201;43.188;24.160;2022-10-04T22:26:48;100572.75;;;11.99;77.74
26531;BME280;14201;43.188;24.160;2022-10-04T22:29:14;100570.34;;;12.04;77.23
26531;BME280;14201;43.188;24.160;2022-10-04T22:31:40;100580.38;;;11.63;77.75
26531;BME280;14201;43.188;24.160;2022-10-04T22:34:16;100569.78;;;11.27;78.40
26531;BME280;14201;43.188;24.160;2022-10-04T22:36:43;100576.34;;;11.52;78.29
26531;BME280;14201;43.188;24.160;2022-10-04T22:39:14;100578.63;;;11.62;78.42
26531;BME280;14201;43.188;24.160;2022-10-04T22:41:41;100579.09;;;11.71;78.07
26531;BME280;14201;43.188;24.160;2022-10-04T22:46:40;100572.75;;;11.66;78.38
26531;BME280;14201;43.188;24.160;2022-10-04T22:49:09;100575.34;;;11.66;78.06
26531;BME280;14201;43.188;24.160;2022-10-04T22:51:36;100573.56;;;11.65;78.13
26531;BME280;14201;43.188;24.160;2022-10-04T22:54:07;100574.47;;;11.66;77.68